Terminal Aerodrome Forecast
Issued by NWS Norman, OK

Home | Current Version | Previous Version | Text Only | Print | Product List | Glossary On
Versions: 1 2 3 4 5 6 7 8 9 10 11 12 13 14 15 16 17 18 19 20 21 22 23 24 25 26 27 28 29 30 31 32 33 34 35
000
FTUS44 KOUN 190125 AAA
TAFOKC
TAF AMD
KOKC 190125Z 1901/1924 17009KT P6SM FEW035 SCT070 OVC120
      TEMPO 1904/1907 3SM TSRA SCT025 OVC040CB
     FM190700 17008KT P6SM FEW035 BKN080
     FM191500 33014KT P6SM SCT025
     FM192000 35010G19KT P6SM SCT250=

USA.gov is the U.S. government's official web portal to all federal, state and local government web resources and services.